createdAt,value
2023-08-29T13:29:12.140Z,27.53
2023-08-29T13:31:42.461Z,27.44
2023-08-29T13:34:10.300Z,27.55
2023-08-29T13:36:41.460Z,27.56
2023-08-29T13:39:09.392Z,27.53
2023-08-29T13:41:37.543Z,27.62
2023-08-29T13:44:05.757Z,27.49
2023-08-29T13:46:33.730Z,27.63
2023-08-29T13:49:02.131Z,27.52
2023-08-29T13:51:29.962Z,27.63
2023-08-29T13:53:57.740Z,27.57
2023-08-29T13:56:25.960Z,27.35
2023-08-29T13:58:53.797Z,27.50
2023-08-29T14:01:21.645Z,27.50
2023-08-29T14:03:49.838Z,27.56
2023-08-29T14:06:17.832Z,27.55
2023-08-29T14:08:45.762Z,27.46
2023-08-29T14:11:13.553Z,27.40
2023-08-29T14:13:41.459Z,27.20
2023-08-29T14:16:10.108Z,27.33
2023-08-29T14:18:38.358Z,27.37
2023-08-29T14:21:06.227Z,27.29
2023-08-29T14:23:34.071Z,27.29
2023-08-29T14:26:02.139Z,27.35
2023-08-29T14:28:30.456Z,27.34
2023-08-29T14:30:59.014Z,27.39
2023-08-29T14:33:26.832Z,27.24
2023-08-29T14:35:56.327Z,27.21
2023-08-29T14:38:24.429Z,27.20
2023-08-29T14:40:52.467Z,27.29
2023-08-29T14:43:20.272Z,27.48
2023-08-29T14:45:48.959Z,27.47
2023-08-29T14:48:16.926Z,27.32
2023-08-29T14:50:45.905Z,27.40
2023-08-29T14:53:13.802Z,27.36
2023-08-29T14:55:41.789Z,27.44
2023-08-29T14:58:09.937Z,27.36
2023-08-29T15:00:42.424Z,27.42
2023-08-29T15:03:10.754Z,27.30
2023-08-29T15:05:38.745Z,27.47
2023-08-29T15:08:07.942Z,27.38
2023-08-29T15:10:37.831Z,27.55
2023-08-29T15:13:06.414Z,27.54
2023-08-29T15:15:38.492Z,27.41
2023-08-29T15:18:06.740Z,27.54
2023-08-29T15:20:37.427Z,27.64
2023-08-29T15:23:07.096Z,27.49
2023-08-29T15:25:35.678Z,27.65
2023-08-29T15:28:03.939Z,27.68
2023-08-29T15:30:32.003Z,27.68
2023-08-29T15:33:00.195Z,27.44
2023-08-29T15:35:28.309Z,27.38
2023-08-29T15:37:56.521Z,27.58
2023-08-29T15:40:24.854Z,27.56
2023-08-29T15:42:52.969Z,27.73
2023-08-29T15:45:20.856Z,27.62
2023-08-29T15:47:48.817Z,27.68
2023-08-29T15:50:17.010Z,27.52
2023-08-29T15:52:45.049Z,27.64
2023-08-29T15:55:12.997Z,27.68
2023-08-29T15:57:40.785Z,27.73
2023-08-29T16:00:15.527Z,27.62
2023-08-29T16:02:46.606Z,27.37
2023-08-29T16:05:14.585Z,27.47
2023-08-29T16:07:46.067Z,27.53
2023-08-29T16:10:16.124Z,27.66
2023-08-29T16:12:47.104Z,27.65
2023-08-29T16:15:17.645Z,27.63
2023-08-29T16:17:45.900Z,27.65
2023-08-29T16:20:13.714Z,27.40
2023-08-29T16:22:44.056Z,27.40
2023-08-29T16:25:12.988Z,27.46
2023-08-29T16:27:41.069Z,27.40
2023-08-29T16:30:10.067Z,27.29
2023-08-29T16:32:39.304Z,27.25
2023-08-29T16:35:07.889Z,26.97
2023-08-29T16:37:38.340Z,27.13
2023-08-29T16:40:09.905Z,27.05
2023-08-29T16:42:39.345Z,27.13
2023-08-29T16:45:08.017Z,26.94
2023-08-29T16:47:35.894Z,27.03
2023-08-29T16:50:05.504Z,26.72
2023-08-29T16:52:33.320Z,27.06
2023-08-29T16:55:02.992Z,26.96
2023-08-29T16:57:30.773Z,26.91
2023-08-29T17:00:00.308Z,27.02
2023-08-29T17:02:29.232Z,26.98
2023-08-29T17:04:57.197Z,26.92
2023-08-29T17:07:28.483Z,27.05
2023-08-29T17:09:56.341Z,26.99
2023-08-29T17:12:24.382Z,26.85
2023-08-29T17:14:53.946Z,26.85
2023-08-29T17:17:23.276Z,26.90
2023-08-29T17:19:51.338Z,27.02
2023-08-29T17:22:19.303Z,27.13
2023-08-29T17:24:47.535Z,26.99
2023-08-29T17:27:15.682Z,27.10
2023-08-29T17:29:44.032Z,27.19
2023-08-29T17:32:12.146Z,27.21
2023-08-29T17:34:39.955Z,27.09
2023-08-29T17:37:07.861Z,27.14
2023-08-29T17:39:35.743Z,27.24
2023-08-29T17:42:03.939Z,27.22
2023-08-29T17:44:31.753Z,27.11
2023-08-29T17:46:59.906Z,27.04
2023-08-29T17:49:27.915Z,27.15
2023-08-29T17:51:55.758Z,27.15
2023-08-29T17:54:23.740Z,27.13
2023-08-29T17:56:52.080Z,26.97
2023-08-29T17:59:20.052Z,27.00
2023-08-29T18:01:49.377Z,26.82
2023-08-29T18:04:17.661Z,27.06
2023-08-29T18:06:46.840Z,27.00
2023-08-29T18:09:15.417Z,27.07
2023-08-29T18:11:44.385Z,27.06
2023-08-29T18:14:12.391Z,27.04
2023-08-29T18:16:40.331Z,26.99
2023-08-29T18:19:08.202Z,26.94
2023-08-29T18:21:36.378Z,26.86
2023-08-29T18:24:04.498Z,26.78
2023-08-29T18:26:33.144Z,26.85
2023-08-29T18:29:01.067Z,26.92
2023-08-29T18:31:30.336Z,27.08
2023-08-29T18:33:58.431Z,26.94
2023-08-29T18:36:26.438Z,27.03
2023-08-29T18:38:56.811Z,27.06
2023-08-29T18:41:33.427Z,27.02
2023-08-29T18:44:01.588Z,26.93
2023-08-29T18:46:31.769Z,26.81
2023-08-29T18:48:59.841Z,26.66
2023-08-29T18:51:27.722Z,26.68
2023-08-29T18:53:56.010Z,26.56
2023-08-29T18:56:23.821Z,26.96
2023-08-29T18:58:51.757Z,26.84
2023-08-29T19:01:20.403Z,26.93
2023-08-29T19:03:48.728Z,26.75
2023-08-29T19:09:29.721Z,25.71
2023-08-29T19:11:59.077Z,26.59
2023-08-29T19:17:39.462Z,26.14
2023-08-29T19:20:08.701Z,27.04
2023-08-29T19:22:37.701Z,27.01
2023-08-29T19:25:08.803Z,25.91
2023-08-29T19:27:38.655Z,26.10
2023-08-29T19:30:12.435Z,25.61
2023-08-29T19:32:41.556Z,26.11
2023-08-29T19:35:14.713Z,26.69
2023-08-29T19:37:45.139Z,27.07
2023-08-29T19:40:13.845Z,27.07
2023-08-29T19:42:42.664Z,25.46
2023-08-29T19:45:13.084Z,26.17
2023-08-29T19:47:43.249Z,26.77
2023-08-29T19:50:16.721Z,26.86
2023-08-29T19:55:52.517Z,26.75
2023-08-29T19:58:24.895Z,25.76
2023-08-29T20:00:53.844Z,26.66
2023-08-29T20:03:26.171Z,27.13
2023-08-29T20:05:54.785Z,26.77
2023-08-29T20:08:24.390Z,26.37
2023-08-29T20:10:53.178Z,26.70
2023-08-29T20:13:21.784Z,26.78
2023-08-29T20:15:52.113Z,26.36
2023-08-29T20:18:23.914Z,27.13
2023-08-29T20:20:52.611Z,26.14
2023-08-29T20:23:21.338Z,26.26
2023-08-29T20:25:49.662Z,25.87
2023-08-29T20:28:18.539Z,25.90
2023-08-29T20:30:47.317Z,27.08
2023-08-29T20:33:15.354Z,26.95
2023-08-29T20:35:45.689Z,27.08
2023-08-29T20:38:14.725Z,26.13
2023-08-29T20:40:44.309Z,27.07
2023-08-29T20:43:13.286Z,26.17
2023-08-29T20:45:42.585Z,26.45
2023-08-29T20:48:11.822Z,26.57
2023-08-29T20:50:44.475Z,27.05
2023-08-29T20:53:13.575Z,25.69
2023-08-29T20:55:42.344Z,25.49
2023-08-29T20:58:11.117Z,26.21
2023-08-29T21:00:40.045Z,26.55
2023-08-29T21:03:09.663Z,25.36
2023-08-29T21:05:38.486Z,25.65
2023-08-29T21:08:07.011Z,25.39
2023-08-29T21:10:37.712Z,26.96
2023-08-29T21:13:05.963Z,25.96
2023-08-29T21:15:39.645Z,26.86
2023-08-29T21:18:08.793Z,25.48
2023-08-29T21:20:39.037Z,25.34
2023-08-29T21:23:07.911Z,26.06
2023-08-29T21:25:36.849Z,25.23
2023-08-29T21:28:06.458Z,26.61
2023-08-29T21:30:40.306Z,25.21
2023-08-29T21:33:09.916Z,25.65
2023-08-29T21:35:44.718Z,25.95
2023-08-29T21:38:17.429Z,25.64
2023-08-29T21:40:47.156Z,26.00
2023-08-29T21:43:20.121Z,25.50
2023-08-29T21:46:04.965Z,25.56
2023-08-29T21:48:34.571Z,25.56
2023-08-29T21:51:11.686Z,26.60
2023-08-29T21:53:41.334Z,26.68
2023-08-29T21:56:10.871Z,25.24
2023-08-29T21:58:39.696Z,26.98
2023-08-29T22:01:12.179Z,26.97
2023-08-29T22:03:41.288Z,26.02
2023-08-29T22:06:13.177Z,26.58
2023-08-29T22:08:43.087Z,25.84
2023-08-29T22:11:11.931Z,26.95
2023-08-29T22:13:41.016Z,26.96
2023-08-29T22:16:10.275Z,26.92
2023-08-29T22:18:39.162Z,26.96
2023-08-29T22:21:11.751Z,25.62
2023-08-29T22:23:40.891Z,25.49
2023-08-29T22:26:09.496Z,26.05
2023-08-29T22:28:39.149Z,25.65
2023-08-29T22:31:08.642Z,26.09
2023-08-29T22:33:37.402Z,25.55
2023-08-29T22:36:06.359Z,27.01
2023-08-29T22:38:35.203Z,25.80
2023-08-29T22:41:21.308Z,25.41
2023-08-29T22:43:53.512Z,25.66
2023-08-29T22:46:22.277Z,25.86
2023-08-29T22:48:51.085Z,25.56
2023-08-29T22:51:19.716Z,25.59
2023-08-29T22:53:51.228Z,26.11
2023-08-29T22:56:20.061Z,27.11
2023-08-29T22:58:48.206Z,25.89
2023-08-29T23:01:17.042Z,25.99
2023-08-29T23:03:49.774Z,26.95
2023-08-29T23:06:22.882Z,27.09
2023-08-29T23:08:52.051Z,26.84
2023-08-29T23:11:20.874Z,26.47
2023-08-29T23:13:49.570Z,26.98
2023-08-29T23:16:21.047Z,27.00
2023-08-29T23:18:49.842Z,25.86
2023-08-29T23:21:18.654Z,26.19
2023-08-29T23:23:47.888Z,25.53
2023-08-29T23:26:20.595Z,26.04
2023-08-29T23:28:52.177Z,26.11
2023-08-29T23:31:21.546Z,26.76
2023-08-29T23:33:52.416Z,26.00
2023-08-29T23:36:26.684Z,26.06
2023-08-29T23:38:55.563Z,26.60
2023-08-29T23:41:24.087Z,26.00
2023-08-29T23:43:52.600Z,26.81
2023-08-29T23:49:40.752Z,26.74
2023-08-29T23:52:09.199Z,25.68
2023-08-29T23:54:37.418Z,26.53
2023-08-29T23:57:06.335Z,25.49
2023-08-29T23:59:34.751Z,25.23
